Time;durP1;ratioP1;P1;durP2;ratioP2;P2;SDS_P1;SDS_P2;PMS_P1;PMS_P2;Temp;Humidity;BMP_temperature;BMP_pressure;BME280_temperature;BME280_humidity;BME280_pressure;Samples;Min_cycle;Max_cycle;Signal;HPM_P1;HPM_P2
2022/05/26 00:00:41;;;;;;;0.83;0.60;;;;;22.50;100632.00;;;;2062950;28;20223;-54
2022/05/26 00:01:41;;;;;;;0.90;0.60;;;;;22.50;100630.00;;;;2062722;28;20683;-57
2022/05/26 00:02:42;;;;;;;0.90;0.60;;;;;22.50;100620.00;;;;2070872;28;21035;-57
2022/05/26 00:03:43;;;;;;;0.80;0.50;;;;;22.50;100628.00;;;;2078893;28;20222;-55
2022/05/26 00:04:43;;;;;;;0.98;0.70;;;;;22.50;100628.00;;;;2070815;28;20374;-57
2022/05/26 00:05:44;;;;;;;1.47;0.60;;;;;22.50;100625.00;;;;2070003;28;20215;-57
2022/05/26 00:06:44;;;;;;;1.07;0.63;;;;;22.50;100633.00;;;;2070832;28;20296;-56
2022/05/26 00:07:44;;;;;;;0.80;0.50;;;;;22.50;100623.00;;;;2071212;28;20210;-57
2022/05/26 00:08:45;;;;;;;0.80;0.60;;;;;22.50;100622.00;;;;2071107;28;20214;-54
2022/05/26 00:09:45;;;;;;;0.70;0.47;;;;;22.50;100626.00;;;;2068697;28;20214;-56
2022/05/26 00:10:45;;;;;;;0.80;0.60;;;;;22.50;100628.00;;;;2078891;28;20256;-56
2022/05/26 00:11:46;;;;;;;0.80;0.50;;;;;22.50;100623.00;;;;2079737;28;20267;-57
2022/05/26 00:12:46;;;;;;;0.90;0.50;;;;;22.50;100626.00;;;;2079558;28;20825;-56
2022/05/26 00:13:46;;;;;;;0.80;0.50;;;;;22.50;100626.00;;;;2077743;28;20593;-56
2022/05/26 00:14:47;;;;;;;1.10;0.70;;;;;22.50;100624.00;;;;2071592;28;20582;-56
2022/05/26 00:15:48;;;;;;;0.90;0.60;;;;;22.50;100628.00;;;;2070935;28;20774;-56
2022/05/26 00:16:49;;;;;;;1.60;0.70;;;;;22.50;100653.00;;;;2071275;28;20294;-54
2022/05/26 00:17:49;;;;;;;0.80;0.50;;;;;22.50;100632.00;;;;2071677;28;21000;-56
2022/05/26 00:18:49;;;;;;;1.23;0.70;;;;;22.50;100631.00;;;;2071906;28;20202;-56
2022/05/26 00:19:50;;;;;;;0.70;0.50;;;;;22.50;100627.00;;;;2055351;28;20266;-56
2022/05/26 00:20:50;;;;;;;1.00;0.50;;;;;22.50;100622.00;;;;2057256;28;20218;-56
2022/05/26 00:21:50;;;;;;;0.70;0.50;;;;;22.50;100628.00;;;;2071758;28;20213;-55
2022/05/26 00:22:51;;;;;;;1.03;0.60;;;;;22.50;100632.00;;;;2072009;28;20198;-55
2022/05/26 00:23:54;;;;;;;0.97;0.80;;;;;22.50;100605.00;;;;2072274;28;20337;-57
2022/05/26 00:24:55;;;;;;;0.70;0.50;;;;;22.50;100630.00;;;;2065412;28;20254;-57
2022/05/26 00:25:55;;;;;;;0.90;0.60;;;;;22.50;100626.00;;;;2071535;28;20714;-56
2022/05/26 00:26:55;;;;;;;1.03;0.60;;;;;22.50;100631.00;;;;2079144;28;20709;-56
2022/05/26 00:27:56;;;;;;;0.90;0.57;;;;;22.50;100624.00;;;;2071807;28;20214;-56
2022/05/26 00:28:56;;;;;;;0.73;0.57;;;;;22.50;100627.00;;;;2077690;28;20221;-55
2022/05/26 00:29:57;;;;;;;0.80;0.57;;;;;22.50;100634.00;;;;2079671;28;20213;-56
2022/05/26 00:30:58;;;;;;;0.70;0.50;;;;;22.50;100625.00;;;;2078479;28;20229;-56
2022/05/26 00:31:58;;;;;;;0.83;0.50;;;;;22.50;100626.00;;;;2075374;28;20222;-56
2022/05/26 00:32:59;;;;;;;0.70;0.50;;;;;22.50;100637.00;;;;2078008;28;20492;-56
2022/05/26 00:33:59;;;;;;;0.70;0.50;;;;;22.50;100638.00;;;;2078672;28;20677;-56
2022/05/26 00:35:00;;;;;;;1.10;0.60;;;;;22.50;100635.00;;;;2078486;28;20209;-59
2022/05/26 00:36:07;;;;;;;0.80;0.60;;;;;22.50;100636.00;;;;2075317;28;20210;-56
2022/05/26 00:37:08;;;;;;;0.90;0.60;;;;;22.50;100638.00;;;;2062518;28;20678;-56
2022/05/26 00:38:09;;;;;;;0.80;0.60;;;;;22.50;100632.00;;;;2062622;28;20219;-56
2022/05/26 00:39:11;;;;;;;0.70;0.60;;;;;22.50;100632.00;;;;2065947;28;20453;-56
2022/05/26 00:40:12;;;;;;;0.82;0.52;;;;;22.50;100630.00;;;;2062911;28;20458;-56
2022/05/26 00:41:13;;;;;;;0.95;0.60;;;;;22.50;100633.00;;;;2079198;28;20716;-57
2022/05/26 00:42:14;;;;;;;0.80;0.60;;;;;22.50;100633.00;;;;2078821;28;20221;-57
2022/05/26 00:43:14;;;;;;;1.23;0.50;;;;;22.50;100633.00;;;;2075720;28;20214;-58
2022/05/26 00:44:15;;;;;;;0.97;0.60;;;;;22.50;100628.00;;;;2066502;28;20214;-57
2022/05/26 00:45:15;;;;;;;0.80;0.60;;;;;22.50;100631.00;;;;2070319;28;20261;-55
2022/05/26 00:46:25;;;;;;;0.70;0.60;;;;;22.50;100630.00;;;;2069813;28;20362;-56
2022/05/26 00:47:27;;;;;;;1.13;0.50;;;;;22.50;100630.00;;;;2063605;28;20226;-56
2022/05/26 00:48:31;;;;;;;1.05;0.68;;;;;22.50;100627.00;;;;2068879;28;20222;-57
2022/05/26 00:49:50;;;;;;;0.60;0.50;;;;;22.50;100628.00;;;;2070764;28;20218;-57
2022/05/26 00:50:51;;;;;;;0.80;0.60;;;;;22.50;100627.00;;;;2067487;28;20265;-57
2022/05/26 00:51:52;;;;;;;1.08;0.88;;;;;22.50;100630.00;;;;2069327;28;20665;-55
2022/05/26 00:52:59;;;;;;;1.00;0.57;;;;;22.50;100636.00;;;;2078497;28;20222;-57
2022/05/26 00:54:04;;;;;;;0.70;0.60;;;;;22.50;100631.00;;;;2079451;28;20308;-56
2022/05/26 00:55:07;;;;;;;0.95;0.60;;;;;22.50;100633.00;;;;2070431;28;20207;-57
2022/05/26 00:56:17;;;;;;;0.60;0.50;;;;;22.50;100626.00;;;;2069343;28;20249;-58
2022/05/26 00:57:22;;;;;;;0.82;0.52;;;;;22.50;100630.00;;;;2062254;28;20308;-59
2022/05/26 00:58:28;;;;;;;1.08;0.63;;;;;22.50;100629.00;;;;2064225;28;20215;-57
2022/05/26 00:59:47;;;;;;;1.00;0.68;;;;;22.50;100629.00;;;;2063014;28;20988;-57
2022/05/26 01:00:48;;;;;;;0.82;0.60;;;;;22.50;100637.00;;;;2072164;28;20224;-55
2022/05/26 01:01:48;;;;;;;0.80;0.60;;;;;22.50;100639.00;;;;2066824;28;20290;-54
2022/05/26 01:02:55;;;;;;;0.70;0.60;;;;;22.50;100631.00;;;;2070072;28;20265;-57
2022/05/26 01:03:58;;;;;;;0.80;0.55;;;;;22.50;100626.00;;;;2074013;28;20226;-58
2022/05/26 01:05:01;;;;;;;0.75;0.55;;;;;22.50;100629.00;;;;2070144;28;20214;-57
2022/05/26 01:06:04;;;;;;;1.08;0.60;;;;;22.50;100627.00;;;;2065485;28;20268;-58
2022/05/26 01:07:14;;;;;;;0.80;0.60;;;;;22.50;100633.00;;;;2061848;28;20217;-55
2022/05/26 01:08:21;;;;;;;1.42;0.50;;;;;22.50;100639.00;;;;2070567;28;20222;-57
2022/05/26 01:09:22;;;;;;;0.70;0.55;;;;;22.50;100632.00;;;;2062279;28;20222;-57
2022/05/26 01:10:22;;;;;;;0.80;0.60;;;;;22.50;100635.00;;;;2055061;28;20221;-56
2022/05/26 01:11:23;;;;;;;2.43;0.90;;;;;22.50;100636.00;;;;2078066;28;20569;-56
2022/05/26 01:12:24;;;;;;;1.53;0.70;;;;;22.50;100635.00;;;;2077683;28;20685;-58
2022/05/26 01:13:24;;;;;;;0.90;0.60;;;;;22.50;100634.00;;;;2069531;28;20503;-57
2022/05/26 01:14:27;;;;;;;0.70;0.53;;;;;22.50;100623.00;;;;2077975;28;20213;-58
2022/05/26 01:15:27;;;;;;;0.70;0.55;;;;;22.50;100631.00;;;;2077247;28;20212;-57
2022/05/26 01:16:48;;;;;;;0.60;0.47;;;;;22.50;100638.00;;;;2069895;28;20210;-55
2022/05/26 01:17:51;;;;;;;0.75;0.50;;;;;22.50;100634.00;;;;2077745;28;20292;-56
2022/05/26 01:19:17;;;;;;;1.40;0.43;;;;;22.50;100629.00;;;;2077390;28;21085;-55
2022/05/26 01:20:51;;;;;;;1.23;0.70;;;;;22.50;100632.00;;;;2079300;28;20209;-54
2022/05/26 01:22:02;;;;;;;1.17;0.60;;;;;22.50;100632.00;;;;2078807;28;20757;-57
2022/05/26 01:23:30;;;;;;;0.90;0.70;;;;;22.50;100645.00;;;;2070314;28;20217;-58
2022/05/26 01:24:58;;;;;;;0.90;0.68;;;;;22.50;100634.00;;;;2074955;28;20271;-58
2022/05/26 01:26:13;;;;;;;0.80;0.57;;;;;22.50;100634.00;;;;2078319;28;20211;-57
2022/05/26 01:27:35;;;;;;;0.82;0.60;;;;;22.50;100632.00;;;;2078942;28;20217;-58
2022/05/26 01:29:13;;;;;;;0.70;0.50;;;;;22.50;100641.00;;;;2077883;28;20213;-56
2022/05/26 01:30:24;;;;;;;0.70;0.50;;;;;22.50;100636.00;;;;2078933;28;20221;-58
2022/05/26 01:31:36;;;;;;;0.70;0.52;;;;;22.50;100636.00;;;;2078181;28;20263;-57
2022/05/26 01:32:54;;;;;;;0.65;0.50;;;;;22.50;100642.00;;;;2063759;28;20211;-58
2022/05/26 01:34:28;;;;;;;0.80;0.50;;;;;22.50;100631.00;;;;2061601;28;20310;-57
2022/05/26 01:35:42;;;;;;;0.90;0.70;;;;;22.50;100640.00;;;;2067577;28;20218;-57
2022/05/26 01:37:07;;;;;;;0.90;0.50;;;;;22.50;100632.00;;;;2069957;28;20224;-58
2022/05/26 01:38:44;;;;;;;0.80;0.60;;;;;22.50;100632.00;;;;2065057;28;20210;-58
2022/05/26 01:39:52;;;;;;;0.93;0.60;;;;;22.50;100636.00;;;;2070665;28;21217;-54
2022/05/26 01:41:17;;;;;;;0.60;0.52;;;;;22.50;100639.00;;;;2069486;28;20305;-55
2022/05/26 01:42:38;;;;;;;0.70;0.50;;;;;22.50;100631.00;;;;2065348;28;20226;-58
2022/05/26 01:43:48;;;;;;;0.80;0.60;;;;;22.50;100641.00;;;;2063814;28;20242;-57
2022/05/26 01:45:06;;;;;;;0.73;0.52;;;;;22.50;100634.00;;;;2061927;28;20249;-58
2022/05/26 01:46:12;;;;;;;1.00;0.60;;;;;22.50;100628.00;;;;2058203;28;20218;-58
2022/05/26 01:47:28;;;;;;;1.00;0.60;;;;;22.50;100633.00;;;;2069935;28;20654;-55
2022/05/26 01:48:43;;;;;;;0.90;0.50;;;;;22.50;100627.00;;;;2069939;28;20245;-60
2022/05/26 01:49:46;;;;;;;0.80;0.50;;;;;22.50;100623.00;;;;2063928;28;20218;-57
2022/05/26 01:50:51;;;;;;;1.23;0.60;;;;;22.50;100626.00;;;;2062204;28;20215;-58
2022/05/26 01:51:53;;;;;;;0.60;0.50;;;;;22.50;100634.00;;;;2047491;28;20223;-56
2022/05/26 01:53:23;;;;;;;1.50;0.60;;;;;22.50;100639.00;;;;2062215;28;20258;-57
2022/05/26 01:54:24;;;;;;;1.05;0.55;;;;;22.50;100641.00;;;;2056529;28;20207;-56
2022/05/26 01:55:29;;;;;;;1.10;0.60;;;;;22.50;100639.00;;;;2061795;28;20219;-53
2022/05/26 01:56:55;;;;;;;0.80;0.50;;;;;22.50;100645.00;;;;2062038;28;20636;-58
2022/05/26 01:58:06;;;;;;;0.70;0.50;;;;;22.50;100640.00;;;;2060226;28;20225;-58
2022/05/26 01:59:12;;;;;;;0.95;0.60;;;;;22.50;100632.00;;;;2070078;28;20217;-58
2022/05/26 02:00:16;;;;;;;0.90;0.63;;;;;22.50;100639.00;;;;2055181;28;20224;-57
2022/05/26 02:01:22;;;;;;;0.75;0.60;;;;;22.50;100641.00;;;;2053766;28;20208;-58
2022/05/26 02:02:28;;;;;;;0.80;0.60;;;;;22.50;100636.00;;;;2061808;28;20229;-57
2022/05/26 02:03:29;;;;;;;1.02;0.50;;;;;22.50;100631.00;;;;2061641;28;20636;-58
2022/05/26 02:04:33;;;;;;;0.80;0.50;;;;;22.50;100636.00;;;;2062669;28;20357;-57
2022/05/26 02:05:39;;;;;;;0.77;0.50;;;;;22.50;100647.00;;;;2069002;28;20582;-56
2022/05/26 02:06:42;;;;;;;0.90;0.60;;;;;22.50;100652.00;;;;2067587;28;20762;-58
2022/05/26 02:07:49;;;;;;;0.77;0.60;;;;;22.50;100632.00;;;;2069820;28;20242;-57
2022/05/26 02:08:56;;;;;;;0.80;0.60;;;;;22.50;100643.00;;;;2070760;28;20226;-58
2022/05/26 02:09:56;;;;;;;0.80;0.60;;;;;22.50;100648.00;;;;2069442;28;20214;-62
2022/05/26 02:11:01;;;;;;;0.90;0.57;;;;;22.50;100642.00;;;;2070155;28;20218;-60
2022/05/26 02:12:23;;;;;;;1.23;0.65;;;;;22.50;100645.00;;;;2078197;28;20800;-57
2022/05/26 02:13:43;;;;;;;1.10;0.60;;;;;22.50;100645.00;;;;2077260;28;20757;-57
2022/05/26 02:14:45;;;;;;;1.10;0.60;;;;;22.50;100645.00;;;;2069661;28;20213;-57
2022/05/26 02:15:48;;;;;;;2.22;0.70;;;;;22.50;100651.00;;;;2069470;28;20203;-56
2022/05/26 02:16:51;;;;;;;1.10;0.60;;;;;22.50;100651.00;;;;2062124;28;20218;-56
2022/05/26 02:17:56;;;;;;;0.60;0.50;;;;;22.50;100647.00;;;;2054356;28;20219;-56
2022/05/26 02:19:01;;;;;;;1.17;0.50;;;;;22.50;100651.00;;;;2063070;28;20230;-56
2022/05/26 02:20:07;;;;;;;0.90;0.57;;;;;22.50;100644.00;;;;2070030;28;20252;-55
2022/05/26 02:21:11;;;;;;;0.70;0.50;;;;;22.50;100650.00;;;;2062593;28;20215;-58
2022/05/26 02:22:18;;;;;;;0.80;0.50;;;;;22.50;100654.00;;;;2071120;28;20218;-57
2022/05/26 02:23:31;;;;;;;0.73;0.55;;;;;22.50;100652.00;;;;2069941;28;20214;-56
2022/05/26 02:24:36;;;;;;;0.73;0.40;;;;;22.50;100645.00;;;;2072808;28;20218;-58
2022/05/26 02:25:36;;;;;;;1.00;0.55;;;;;22.50;100650.00;;;;2069411;28;20903;-55
2022/05/26 02:26:37;;;;;;;0.70;0.50;;;;;22.50;100659.00;;;;2054214;28;20290;-55
2022/05/26 02:27:37;;;;;;;0.70;0.50;;;;;22.50;100655.00;;;;2061404;28;20219;-58
2022/05/26 02:30:05;;;;;;;0.70;0.50;;;;;22.50;100656.00;;;;2034327;28;20217;-58
2022/05/26 02:31:05;;;;;;;0.68;0.40;;;;;22.50;100659.00;;;;2063181;28;20218;-54
2022/05/26 02:32:06;;;;;;;1.23;0.70;;;;;22.50;100655.00;;;;2061932;28;20285;-58
2022/05/26 02:33:08;;;;;;;1.07;0.57;;;;;22.50;100654.00;;;;2053777;28;20211;-58
2022/05/26 02:34:08;;;;;;;0.80;0.70;;;;;22.50;100662.00;;;;2062068;28;20222;-57
2022/05/26 02:35:19;;;;;;;0.70;0.50;;;;;22.50;100658.00;;;;2061485;28;20208;-57
2022/05/26 02:36:19;;;;;;;1.05;0.75;;;;;22.50;100652.00;;;;2062466;28;20215;-57
2022/05/26 02:37:20;;;;;;;1.10;0.50;;;;;22.50;100655.00;;;;2061433;28;20223;-57
2022/05/26 02:38:23;;;;;;;1.00;0.90;;;;;22.50;100660.00;;;;2061812;28;20582;-58
2022/05/26 02:39:23;;;;;;;0.80;0.50;;;;;22.50;100656.00;;;;2070213;28;20222;-57
2022/05/26 02:40:23;;;;;;;0.63;0.50;;;;;22.50;100655.00;;;;2069951;28;20222;-55
2022/05/26 02:41:24;;;;;;;0.73;0.50;;;;;22.50;100650.00;;;;2061559;28;20231;-55
2022/05/26 02:42:24;;;;;;;0.97;0.53;;;;;22.50;100652.00;;;;2061809;28;20219;-58
2022/05/26 02:43:26;;;;;;;1.67;0.57;;;;;22.50;100661.00;;;;2069839;28;20226;-58
2022/05/26 02:44:26;;;;;;;0.80;0.50;;;;;22.50;100656.00;;;;2069236;28;20241;-58
2022/05/26 02:45:47;;;;;;;0.70;0.50;;;;;22.50;100656.00;;;;2069013;28;20211;-58
2022/05/26 02:47:13;;;;;;;0.70;0.50;;;;;22.50;100661.00;;;;2056299;28;20703;-58
2022/05/26 02:48:40;;;;;;;1.20;0.63;;;;;22.50;100660.00;;;;2064190;28;20268;-58
2022/05/26 02:49:46;;;;;;;0.88;0.63;;;;;22.50;100619.00;;;;2069497;28;20210;-57
2022/05/26 02:51:17;;;;;;;0.70;0.50;;;;;22.50;100663.00;;;;2070109;28;20206;-58
2022/05/26 02:52:35;;;;;;;0.70;0.50;;;;;22.40;100671.00;;;;2065561;28;20301;-58
2022/05/26 02:53:44;;;;;;;1.10;0.50;;;;;22.50;100667.00;;;;2066822;28;20466;-57
2022/05/26 02:55:08;;;;;;;0.93;0.60;;;;;22.50;100676.00;;;;2064009;28;20215;-58
2022/05/26 02:56:27;;;;;;;0.68;0.50;;;;;22.40;100675.00;;;;2063984;28;20218;-58
2022/05/26 02:57:58;;;;;;;0.70;0.50;;;;;22.50;100675.00;;;;2063931;28;20225;-58
2022/05/26 02:59:17;;;;;;;0.80;0.60;;;;;22.50;100685.00;;;;2065778;28;20217;-58
2022/05/26 03:00:38;;;;;;;0.60;0.50;;;;;22.50;100677.00;;;;2061161;28;20221;-58
2022/05/26 03:02:13;;;;;;;0.80;0.52;;;;;22.40;100675.00;;;;2068918;28;20240;-58
2022/05/26 03:03:21;;;;;;;0.90;0.50;;;;;22.50;100681.00;;;;2064161;28;20389;-58
2022/05/26 03:04:25;;;;;;;0.95;0.52;;;;;22.50;100681.00;;;;2066090;28;20237;-57
2022/05/26 03:05:45;;;;;;;0.90;0.50;;;;;22.50;100690.00;;;;2060821;28;20215;-55
2022/05/26 03:06:50;;;;;;;1.10;0.80;;;;;22.50;100683.00;;;;2056270;28;20241;-58
2022/05/26 03:07:52;;;;;;;0.80;0.50;;;;;22.40;100684.00;;;;2061532;28;20825;-58
2022/05/26 03:08:53;;;;;;;1.05;0.60;;;;;22.50;100672.00;;;;2053886;28;20758;-55
2022/05/26 03:09:53;;;;;;;0.70;0.60;;;;;22.50;100682.00;;;;2058049;28;20215;-57
2022/05/26 03:11:01;;;;;;;0.80;0.50;;;;;22.50;100678.00;;;;2068775;28;20217;-57
2022/05/26 03:12:02;;;;;;;1.35;0.57;;;;;22.50;100685.00;;;;2070695;28;20218;-58
2022/05/26 03:13:03;;;;;;;1.20;0.60;;;;;22.50;100684.00;;;;2077852;28;20624;-56
2022/05/26 03:14:03;;;;;;;0.70;0.50;;;;;22.50;100678.00;;;;2077926;28;20308;-56
2022/05/26 03:15:05;;;;;;;1.63;0.50;;;;;22.50;100675.00;;;;2077410;28;20693;-58
2022/05/26 03:16:06;;;;;;;0.80;0.50;;;;;22.50;100676.00;;;;2076160;28;20213;-64
2022/05/26 03:17:06;;;;;;;0.90;0.50;;;;;22.40;100671.00;;;;2069648;28;20599;-60
2022/05/26 03:18:06;;;;;;;0.87;0.50;;;;;22.50;100673.00;;;;2077420;28;20213;-60
2022/05/26 03:19:07;;;;;;;0.90;0.60;;;;;22.50;100678.00;;;;2077389;28;20295;-60
2022/05/26 03:20:08;;;;;;;1.10;0.70;;;;;22.50;100678.00;;;;2075970;28;20214;-54
2022/05/26 03:21:08;;;;;;;0.87;0.53;;;;;22.50;100676.00;;;;2079296;28;20763;-58
2022/05/26 03:22:09;;;;;;;1.50;0.60;;;;;22.50;100674.00;;;;2080110;28;20539;-58
2022/05/26 03:23:09;;;;;;;0.80;0.40;;;;;22.40;100675.00;;;;2079934;28;20209;-58
2022/05/26 03:24:10;;;;;;;0.90;0.50;;;;;22.40;100675.00;;;;2080056;28;20677;-57
2022/05/26 03:25:10;;;;;;;0.70;0.60;;;;;22.50;100678.00;;;;2079949;28;20224;-58
2022/05/26 03:26:10;;;;;;;0.80;0.50;;;;;22.50;100672.00;;;;2079419;28;21137;-56
2022/05/26 03:27:11;;;;;;;0.70;0.63;;;;;22.40;100684.00;;;;2079639;28;20230;-57
2022/05/26 03:28:11;;;;;;;0.60;0.40;;;;;22.50;100680.00;;;;2078982;28;20748;-58
2022/05/26 03:29:12;;;;;;;0.70;0.50;;;;;22.40;100676.00;;;;2071152;28;20301;-58
2022/05/26 03:30:12;;;;;;;0.97;0.57;;;;;22.40;100678.00;;;;2079514;28;20222;-54
2022/05/26 03:31:12;;;;;;;1.03;0.80;;;;;22.50;100686.00;;;;2080212;28;20232;-57
2022/05/26 03:32:13;;;;;;;0.87;0.60;;;;;22.50;100685.00;;;;2079284;28;20218;-56
2022/05/26 03:33:13;;;;;;;0.90;0.60;;;;;22.50;100687.00;;;;2071277;28;20210;-58
2022/05/26 03:40:57;;;;;;;0.75;0.60;;;;;22.40;100684.00;;;;2079859;28;20240;-58
2022/05/26 03:41:57;;;;;;;1.20;0.60;;;;;22.40;100686.00;;;;2079873;28;20202;-57
2022/05/26 03:42:57;;;;;;;1.70;0.50;;;;;22.40;100686.00;;;;2070621;28;20202;-58
2022/05/26 03:43:58;;;;;;;0.90;0.50;;;;;22.40;100686.00;;;;2071017;28;20223;-57
2022/05/26 03:44:59;;;;;;;1.00;0.70;;;;;22.50;100688.00;;;;2070917;28;20296;-55
2022/05/26 03:45:59;;;;;;;1.10;0.50;;;;;22.40;100690.00;;;;2070170;28;20448;-57
2022/05/26 03:47:00;;;;;;;1.00;0.70;;;;;22.40;100698.00;;;;2078937;28;20221;-58
2022/05/26 03:48:01;;;;;;;0.70;0.60;;;;;22.40;100699.00;;;;2070510;28;20222;-58
2022/05/26 03:49:01;;;;;;;0.90;0.60;;;;;22.50;100701.00;;;;2079182;28;20275;-55
2022/05/26 03:50:01;;;;;;;0.97;0.50;;;;;22.40;100708.00;;;;2080016;28;20494;-57
2022/05/26 03:51:02;;;;;;;0.77;0.50;;;;;22.40;100698.00;;;;2079205;28;20217;-57
2022/05/26 03:52:02;;;;;;;0.70;0.50;;;;;22.40;100696.00;;;;2079245;28;20213;-56
2022/05/26 03:53:03;;;;;;;0.70;0.50;;;;;22.40;100697.00;;;;2079103;28;20295;-55
2022/05/26 03:54:03;;;;;;;0.70;0.50;;;;;22.40;100703.00;;;;2070937;28;20214;-56
2022/05/26 03:55:04;;;;;;;0.90;0.60;;;;;22.40;100709.00;;;;2070714;28;20290;-56
2022/05/26 03:56:05;;;;;;;1.08;0.65;;;;;22.40;100712.00;;;;2078166;28;20674;-58
2022/05/26 03:57:06;;;;;;;0.83;0.60;;;;;22.40;100709.00;;;;2071099;28;20237;-54
2022/05/26 03:58:07;;;;;;;1.08;0.70;;;;;22.40;100708.00;;;;2063766;28;20214;-57
2022/05/26 03:59:07;;;;;;;0.70;0.50;;;;;22.40;100710.00;;;;2078756;28;20579;-57
2022/05/26 04:00:08;;;;;;;1.20;0.63;;;;;22.40;100713.00;;;;2079807;28;20666;-57
2022/05/26 04:01:09;;;;;;;0.93;0.77;;;;;22.40;100722.00;;;;2079841;28;20756;-56
2022/05/26 04:02:10;;;;;;;1.00;0.60;;;;;22.50;100713.00;;;;2079102;28;20844;-56
2022/05/26 04:03:10;;;;;;;1.30;0.60;;;;;22.40;100718.00;;;;2079054;28;20221;-56
2022/05/26 04:04:11;;;;;;;1.00;0.70;;;;;22.40;100714.00;;;;2079536;28;20221;-54
2022/05/26 04:05:11;;;;;;;0.90;0.47;;;;;22.50;100716.00;;;;2079674;28;20245;-56
2022/05/26 04:06:11;;;;;;;0.97;0.60;;;;;22.40;100714.00;;;;2078203;28;20275;-57
2022/05/26 04:07:12;;;;;;;0.80;0.50;;;;;22.40;100717.00;;;;2078826;28;20255;-55
2022/05/26 04:08:12;;;;;;;0.93;0.50;;;;;22.40;100720.00;;;;2079026;28;20222;-55
2022/05/26 04:09:13;;;;;;;2.13;0.60;;;;;22.40;100723.00;;;;2077793;28;20305;-57
2022/05/26 04:10:13;;;;;;;0.70;0.50;;;;;22.40;100727.00;;;;2079476;28;20677;-57
2022/05/26 04:11:14;;;;;;;1.83;0.50;;;;;22.40;100721.00;;;;2075871;28;20825;-61
2022/05/26 04:12:14;;;;;;;0.87;0.50;;;;;22.40;100727.00;;;;2076144;28;20274;-54
2022/05/26 04:13:14;;;;;;;0.97;0.73;;;;;22.40;100728.00;;;;2079182;28;20233;-56
2022/05/26 04:14:15;;;;;;;1.10;0.50;;;;;22.40;100727.00;;;;2070772;28;20302;-56
2022/05/26 04:15:16;;;;;;;0.80;0.60;;;;;22.40;100732.00;;;;2078857;28;20225;-56
2022/05/26 04:16:17;;;;;;;1.30;0.60;;;;;22.40;100730.00;;;;2070330;28;20760;-54
2022/05/26 04:17:17;;;;;;;0.90;0.53;;;;;22.40;100735.00;;;;2070950;28;20222;-57
2022/05/26 04:18:17;;;;;;;0.63;0.50;;;;;22.40;100736.00;;;;2078948;28;20456;-57
2022/05/26 04:19:18;;;;;;;1.20;0.60;;;;;22.40;100733.00;;;;2079054;28;20213;-57
2022/05/26 04:20:19;;;;;;;1.10;0.50;;;;;22.40;100733.00;;;;2078593;28;20221;-56
2022/05/26 04:21:20;;;;;;;0.73;0.50;;;;;22.40;100738.00;;;;2070178;28;20649;-56
2022/05/26 04:22:23;;;;;;;0.90;0.50;;;;;22.40;100735.00;;;;2069546;28;20218;-55
2022/05/26 04:23:23;;;;;;;0.70;0.55;;;;;22.40;100740.00;;;;2079185;28;20736;-56
2022/05/26 04:24:23;;;;;;;0.70;0.50;;;;;22.40;100734.00;;;;2079298;28;20221;-57
2022/05/26 04:25:25;;;;;;;0.80;0.60;;;;;22.50;100733.00;;;;2078864;28;20287;-57
2022/05/26 04:26:25;;;;;;;0.70;0.50;;;;;22.40;100736.00;;;;2078928;28;20717;-56
2022/05/26 04:27:28;;;;;;;0.90;0.50;;;;;22.40;100735.00;;;;2078300;28;20253;-57
2022/05/26 04:28:28;;;;;;;1.10;0.50;;;;;22.40;100739.00;;;;2070674;28;20260;-56
2022/05/26 04:29:29;;;;;;;1.00;0.50;;;;;22.40;100740.00;;;;2071614;28;20236;-55
2022/05/26 04:30:29;;;;;;;0.90;0.60;;;;;22.40;100739.00;;;;2077611;28;20710;-57
2022/05/26 04:31:30;;;;;;;1.17;0.60;;;;;22.40;100739.00;;;;2079061;28;20464;-57
2022/05/26 04:32:30;;;;;;;1.07;0.70;;;;;22.40;100737.00;;;;2079510;28;20248;-57
2022/05/26 04:33:31;;;;;;;2.20;0.80;;;;;22.40;100743.00;;;;2065047;28;20210;-56
2022/05/26 04:34:31;;;;;;;0.93;0.50;;;;;22.40;100747.00;;;;2071573;28;20253;-60
2022/05/26 04:35:32;;;;;;;0.87;0.60;;;;;22.40;100745.00;;;;2071439;28;20590;-58
2022/05/26 04:36:32;;;;;;;1.40;0.70;;;;;22.40;100750.00;;;;2063459;28;20223;-56
2022/05/26 04:37:33;;;;;;;1.23;0.50;;;;;22.40;100753.00;;;;2071466;28;20229;-55
2022/05/26 04:38:33;;;;;;;1.00;0.60;;;;;22.40;100745.00;;;;2063137;28;20223;-59
2022/05/26 04:39:34;;;;;;;0.83;0.60;;;;;22.50;100745.00;;;;2058654;28;20221;-60
2022/05/26 04:40:34;;;;;;;0.80;0.50;;;;;22.50;100743.00;;;;2055609;28;20216;-58
2022/05/26 04:41:34;;;;;;;0.90;0.50;;;;;22.40;100747.00;;;;2071418;28;20728;-57
2022/05/26 04:42:36;;;;;;;0.67;0.47;;;;;22.40;100756.00;;;;2071416;28;20286;-55
2022/05/26 04:43:38;;;;;;;0.80;0.57;;;;;22.40;100743.00;;;;2063117;28;20215;-56
2022/05/26 04:44:40;;;;;;;0.80;0.50;;;;;22.40;100759.00;;;;2071098;28;26175;-58
2022/05/26 04:45:40;;;;;;;1.20;0.65;;;;;22.40;100753.00;;;;2062161;28;20219;-57
2022/05/26 04:46:41;;;;;;;0.70;0.50;;;;;22.40;100753.00;;;;2062852;28;21239;-58
2022/05/26 04:47:41;;;;;;;0.70;0.60;;;;;22.40;100754.00;;;;2071211;28;20218;-58
2022/05/26 04:48:42;;;;;;;0.90;0.50;;;;;22.40;100758.00;;;;2070613;28;20253;-58
2022/05/26 04:49:42;;;;;;;0.90;0.50;;;;;22.40;100776.00;;;;2071122;28;20308;-56
2022/05/26 04:50:43;;;;;;;1.37;0.60;;;;;22.40;100755.00;;;;2071619;28;21027;-54
2022/05/26 04:51:43;;;;;;;1.10;0.50;;;;;22.40;100761.00;;;;2054499;28;20223;-56
2022/05/26 04:52:44;;;;;;;1.00;0.70;;;;;22.40;100760.00;;;;2054610;28;20852;-55
2022/05/26 04:53:44;;;;;;;1.10;0.70;;;;;22.40;100761.00;;;;2070638;28;20294;-58
2022/05/26 04:54:45;;;;;;;0.70;0.40;;;;;22.40;100761.00;;;;2070641;28;20218;-57
2022/05/26 04:55:46;;;;;;;0.80;0.60;;;;;22.40;100761.00;;;;2061432;28;20223;-58
2022/05/26 04:56:46;;;;;;;1.43;0.70;;;;;22.40;100758.00;;;;2062497;28;20458;-59
2022/05/26 04:57:47;;;;;;;1.27;0.67;;;;;22.40;100762.00;;;;2071118;28;20222;-58
2022/05/26 04:58:48;;;;;;;1.05;0.60;;;;;22.40;100763.00;;;;2070607;28;20264;-58
2022/05/26 04:59:48;;;;;;;1.00;0.60;;;;;22.40;100752.00;;;;2070812;28;20404;-58
2022/05/26 05:00:49;;;;;;;0.80;0.50;;;;;22.40;100765.00;;;;2070533;28;20241;-58
2022/05/26 05:01:49;;;;;;;1.38;0.70;;;;;22.40;100760.00;;;;2059289;28;20214;-58
2022/05/26 05:02:50;;;;;;;1.00;0.80;;;;;22.40;100755.00;;;;2070595;28;20560;-58
2022/05/26 05:03:50;;;;;;;0.80;0.50;;;;;22.40;100766.00;;;;2079431;28;20244;-57
2022/05/26 05:04:51;;;;;;;0.90;0.50;;;;;22.40;100729.00;;;;2079038;28;20241;-58
2022/05/26 05:05:51;;;;;;;1.10;0.73;;;;;22.40;100768.00;;;;2069661;28;20217;-56
2022/05/26 05:06:52;;;;;;;0.90;0.70;;;;;22.40;100771.00;;;;2070408;28;20221;-56
2022/05/26 05:07:52;;;;;;;1.00;0.60;;;;;22.40;100770.00;;;;2086673;28;20205;-61
2022/05/26 05:08:52;;;;;;;1.10;0.60;;;;;22.40;100771.00;;;;2086648;28;20452;-57
2022/05/26 05:09:53;;;;;;;0.90;0.80;;;;;22.40;100764.00;;;;2078582;28;20233;-57
2022/05/26 05:10:53;;;;;;;0.70;0.50;;;;;22.40;100775.00;;;;2078566;28;20214;-56
2022/05/26 05:11:53;;;;;;;0.70;0.60;;;;;22.40;100769.00;;;;2079308;28;20209;-56
2022/05/26 05:12:54;;;;;;;1.13;0.80;;;;;22.40;100776.00;;;;2079400;28;20213;-55
2022/05/26 05:13:54;;;;;;;1.30;0.70;;;;;22.40;100768.00;;;;2070430;28;20217;-58
2022/05/26 05:14:55;;;;;;;0.90;0.60;;;;;22.40;100770.00;;;;2070125;28;20221;-58
2022/05/26 05:16:19;;;;;;;0.80;0.70;;;;;22.40;100778.00;;;;2077836;28;20210;-58
2022/05/26 05:17:21;;;;;;;0.90;0.70;;;;;22.40;100781.00;;;;2070656;28;20317;-56
2022/05/26 05:18:22;;;;;;;0.70;0.60;;;;;22.40;100778.00;;;;2070522;28;20241;-58
2022/05/26 05:19:23;;;;;;;0.80;0.55;;;;;22.40;100771.00;;;;2078534;28;20323;-57
2022/05/26 05:20:23;;;;;;;1.07;0.50;;;;;22.40;100788.00;;;;2079105;28;20632;-57
2022/05/26 05:21:32;;;;;;;1.03;0.63;;;;;22.40;100785.00;;;;2078321;28;20638;-57
2022/05/26 05:22:36;;;;;;;0.80;0.60;;;;;22.40;100788.00;;;;2071464;28;20749;-57
2022/05/26 05:23:39;;;;;;;1.40;0.70;;;;;22.40;100786.00;;;;2071871;28;20301;-58
2022/05/26 05:24:48;;;;;;;0.80;0.60;;;;;22.40;100731.00;;;;2070746;28;20242;-57
2022/05/26 05:25:49;;;;;;;0.90;0.65;;;;;22.40;100791.00;;;;2070769;28;20748;-57
2022/05/26 05:26:52;;;;;;;0.93;0.65;;;;;22.40;100788.00;;;;2070692;28;20209;-57
2022/05/26 05:27:55;;;;;;;0.85;0.70;;;;;22.40;100804.00;;;;2077485;28;20406;-57